createdAt,value
2023-05-04T00:01:11.338Z,5.13
2023-05-04T00:03:45.464Z,5.05
2023-05-04T00:06:12.528Z,5.04
2023-05-04T00:08:38.992Z,5.01
2023-05-04T00:11:07.503Z,5.01
2023-05-04T00:13:34.951Z,4.96
2023-05-04T00:16:01.606Z,4.92
2023-05-04T00:18:30.051Z,4.89
2023-05-04T00:20:58.530Z,4.85
2023-05-04T00:23:24.946Z,4.87
2023-05-04T00:25:52.489Z,4.87
2023-05-04T00:28:20.338Z,4.82
2023-05-04T00:30:49.965Z,4.76
2023-05-04T00:33:16.667Z,4.71
2023-05-04T00:35:47.380Z,4.64
2023-05-04T00:38:13.926Z,4.55
2023-05-04T00:40:41.581Z,4.62
2023-05-04T00:43:08.495Z,4.55
2023-05-04T00:45:35.588Z,4.56
2023-05-04T00:48:02.344Z,4.55
2023-05-04T00:50:31.319Z,4.51
2023-05-04T00:53:01.725Z,4.51
2023-05-04T00:55:29.264Z,4.47
2023-05-04T00:57:59.625Z,4.48
2023-05-04T01:00:27.318Z,4.45
2023-05-04T01:02:58.729Z,4.48
2023-05-04T01:05:36.593Z,4.43
2023-05-04T01:08:08.564Z,4.43
2023-05-04T01:10:47.964Z,4.35
2023-05-04T01:13:16.325Z,4.32
2023-05-04T01:15:44.637Z,4.28
2023-05-04T01:18:12.533Z,4.24
2023-05-04T01:20:39.333Z,4.31
2023-05-04T01:23:05.982Z,4.26
2023-05-04T01:25:42.988Z,4.17
2023-05-04T01:28:19.043Z,4.09
2023-05-04T01:30:49.312Z,4.06
2023-05-04T01:33:19.097Z,4.10
2023-05-04T01:35:47.130Z,4.10
2023-05-04T01:38:13.835Z,4.03
2023-05-04T01:40:45.017Z,3.95
2023-05-04T01:43:11.793Z,3.95
2023-05-04T01:45:39.684Z,3.96
2023-05-04T01:48:06.677Z,3.93
2023-05-04T01:50:33.456Z,4.00
2023-05-04T01:53:01.374Z,3.98
2023-05-04T01:55:29.054Z,4.00
2023-05-04T01:57:55.610Z,4.04
2023-05-04T02:00:22.595Z,4.09
2023-05-04T02:02:49.290Z,4.11
2023-05-04T02:05:17.063Z,4.09
2023-05-04T02:07:45.569Z,4.13
2023-05-04T02:10:20.226Z,3.97
2023-05-04T02:12:48.026Z,3.96
2023-05-04T02:15:16.001Z,3.85
2023-05-04T02:17:42.581Z,3.78
2023-05-04T02:20:10.629Z,3.78
2023-05-04T02:22:38.944Z,3.74
2023-05-04T02:25:08.904Z,3.73
2023-05-04T02:27:37.505Z,3.69
2023-05-04T02:30:05.748Z,3.67
2023-05-04T02:32:32.726Z,3.62
2023-05-04T02:35:00.408Z,3.60
2023-05-04T02:37:28.022Z,3.52
2023-05-04T02:39:56.641Z,3.47
2023-05-04T02:42:24.151Z,3.47
2023-05-04T02:44:50.726Z,3.47
2023-05-04T02:47:17.518Z,3.53
2023-05-04T02:49:44.284Z,3.52
2023-05-04T02:52:12.092Z,3.46
2023-05-04T02:54:40.574Z,3.48
2023-05-04T02:57:07.253Z,3.48
2023-05-04T02:59:34.717Z,3.45
2023-05-04T03:02:01.401Z,3.43
2023-05-04T03:04:30.238Z,3.37
2023-05-04T03:06:58.870Z,3.35
2023-05-04T03:09:29.402Z,3.32
2023-05-04T03:11:56.160Z,3.33
2023-05-04T03:14:23.679Z,3.28
2023-05-04T03:16:50.250Z,3.23
2023-05-04T03:19:19.060Z,3.18
2023-05-04T03:21:46.425Z,3.20
2023-05-04T03:24:13.199Z,3.22
2023-05-04T03:26:41.418Z,3.14
2023-05-04T03:29:07.940Z,3.14
2023-05-04T03:31:34.489Z,3.13
2023-05-04T03:34:02.197Z,3.11
2023-05-04T03:36:28.940Z,3.03
2023-05-04T03:38:55.962Z,3.04
2023-05-04T03:41:22.711Z,3.06
2023-05-04T03:43:49.160Z,3.02
2023-05-04T03:46:16.837Z,3.03
2023-05-04T03:48:43.364Z,2.99
2023-05-04T03:51:10.108Z,2.95
2023-05-04T03:53:37.549Z,2.97
2023-05-04T03:56:04.097Z,2.96
2023-05-04T03:58:32.648Z,2.96
2023-05-04T04:01:01.391Z,2.97
2023-05-04T04:03:28.241Z,2.97
2023-05-04T04:05:54.919Z,2.98
2023-05-04T04:08:21.449Z,3.04
2023-05-04T04:10:47.934Z,3.04
2023-05-04T04:13:15.621Z,3.05
2023-05-04T04:15:46.518Z,3.02
2023-05-04T04:18:14.049Z,3.11
2023-05-04T04:20:41.771Z,3.15
2023-05-04T04:23:08.337Z,3.20
2023-05-04T04:25:37.746Z,3.24
2023-05-04T04:28:06.298Z,3.38
2023-05-04T04:30:33.743Z,3.43
2023-05-04T04:33:02.199Z,3.52
2023-05-04T04:35:28.639Z,3.56
2023-05-04T04:37:55.094Z,3.74
2023-05-04T04:40:22.532Z,3.81
2023-05-04T04:42:48.951Z,4.02
2023-05-04T04:45:16.529Z,4.03
2023-05-04T04:47:43.252Z,4.04
2023-05-04T04:50:10.163Z,4.09
2023-05-04T04:52:36.644Z,4.16
2023-05-04T04:55:04.325Z,4.29
2023-05-04T04:57:31.924Z,4.22
2023-05-04T05:00:08.318Z,4.31
2023-05-04T05:02:34.874Z,4.30
2023-05-04T05:05:01.421Z,4.34
2023-05-04T05:07:29.943Z,4.51
2023-05-04T05:09:57.407Z,4.59
2023-05-04T05:12:23.905Z,5.00
2023-05-04T05:14:50.925Z,5.46
2023-05-04T05:17:18.816Z,5.95
2023-05-04T05:19:45.254Z,6.21
2023-05-04T05:22:11.768Z,6.76
2023-05-04T05:24:38.266Z,6.87
2023-05-04T05:27:16.922Z,7.48
2023-05-04T05:29:45.641Z,8.19
2023-05-04T05:32:25.652Z,8.62
2023-05-04T05:35:01.083Z,9.92
2023-05-04T05:37:27.893Z,10.62
2023-05-04T05:39:54.292Z,11.69
2023-05-04T05:42:20.984Z,12.12
2023-05-04T05:44:47.399Z,12.50
2023-05-04T05:47:14.986Z,12.59
2023-05-04T05:49:51.749Z,13.01
2023-05-04T05:52:26.682Z,12.14
2023-05-04T05:55:02.428Z,12.78
2023-05-04T05:57:32.551Z,14.36
2023-05-04T06:00:00.975Z,15.02
2023-05-04T06:02:30.602Z,13.95
2023-05-04T06:05:00.831Z,13.41
2023-05-04T06:07:28.012Z,13.77
2023-05-04T06:09:56.790Z,13.99
2023-05-04T06:12:23.406Z,14.75
2023-05-04T06:14:50.897Z,15.29
2023-05-04T06:17:22.861Z,15.32
2023-05-04T06:19:52.884Z,16.00
2023-05-04T06:22:20.476Z,16.32
2023-05-04T06:24:55.686Z,16.75
2023-05-04T06:27:39.818Z,16.58
2023-05-04T06:30:29.801Z,16.16
2023-05-04T06:33:04.101Z,17.48
2023-05-04T06:35:32.868Z,17.54
2023-05-04T06:38:12.751Z,16.33
2023-05-04T06:40:39.450Z,16.38
2023-05-04T06:43:08.553Z,17.00
2023-05-04T06:45:39.460Z,18.32
2023-05-04T06:48:06.395Z,18.87
2023-05-04T06:50:36.228Z,18.90
2023-05-04T06:53:04.449Z,19.41
2023-05-04T06:55:31.781Z,19.05
2023-05-04T06:57:58.484Z,21.60
2023-05-04T07:00:25.355Z,21.87
2023-05-04T07:02:55.222Z,22.20
2023-05-04T07:05:23.011Z,21.66
2023-05-04T07:07:51.383Z,22.56
2023-05-04T07:10:19.551Z,23.20
2023-05-04T07:12:47.009Z,23.02
2023-05-04T07:15:14.705Z,23.68
2023-05-04T07:17:42.363Z,22.47
2023-05-04T07:20:09.271Z,22.57
2023-05-04T07:22:36.797Z,22.07
2023-05-04T07:25:04.775Z,21.38
2023-05-04T07:27:31.406Z,22.54
2023-05-04T07:29:58.876Z,21.94
2023-05-04T07:32:25.490Z,21.28
2023-05-04T07:34:54.076Z,21.61
2023-05-04T07:37:20.647Z,21.68
2023-05-04T07:39:48.086Z,21.37
2023-05-04T07:42:14.696Z,21.00
2023-05-04T07:44:42.292Z,20.88
2023-05-04T07:47:12.298Z,20.79
2023-05-04T07:49:38.829Z,22.24
2023-05-04T07:52:06.371Z,21.24
2023-05-04T07:54:39.826Z,21.17
2023-05-04T07:57:06.451Z,21.11
2023-05-04T07:59:33.874Z,20.90
2023-05-04T08:02:00.482Z,20.77
2023-05-04T08:04:28.102Z,20.97
2023-05-04T08:06:55.694Z,21.41
2023-05-04T08:09:23.220Z,22.52
2023-05-04T08:11:50.208Z,21.80
2023-05-04T08:14:20.138Z,23.53
2023-05-04T08:16:47.408Z,22.77
2023-05-04T08:19:13.850Z,21.24
2023-05-04T08:21:41.550Z,21.61
2023-05-04T08:24:09.176Z,21.30
2023-05-04T08:26:41.406Z,21.03
2023-05-04T08:29:12.720Z,22.56
2023-05-04T08:31:40.468Z,24.38
2023-05-04T08:34:08.944Z,21.76
2023-05-04T08:36:36.424Z,22.34
2023-05-04T08:39:14.173Z,22.83
2023-05-04T08:41:44.342Z,21.83
2023-05-04T08:44:13.784Z,20.17
2023-05-04T08:46:52.312Z,20.34
2023-05-04T08:49:30.483Z,20.69
2023-05-04T08:52:01.136Z,21.68
2023-05-04T08:54:29.011Z,22.50
2023-05-04T08:56:58.804Z,23.17
2023-05-04T08:59:30.696Z,21.98
2023-05-04T09:02:00.516Z,20.99
2023-05-04T09:04:29.755Z,22.03
2023-05-04T09:07:01.826Z,22.10
2023-05-04T09:09:29.459Z,23.38
2023-05-04T09:12:08.622Z,22.62
2023-05-04T09:14:36.784Z,22.32
2023-05-04T09:17:12.444Z,22.24
2023-05-04T09:19:43.802Z,23.38
2023-05-04T09:22:17.683Z,22.35
2023-05-04T09:24:49.564Z,22.20
2023-05-04T09:27:22.288Z,22.02
2023-05-04T09:29:55.016Z,23.22
2023-05-04T09:32:29.940Z,24.16
2023-05-04T09:34:56.626Z,24.07
2023-05-04T09:37:24.171Z,22.43
2023-05-04T09:39:53.696Z,23.94
2023-05-04T09:42:22.394Z,23.15
2023-05-04T09:45:05.356Z,24.38
2023-05-04T09:47:37.487Z,25.01
2023-05-04T09:50:12.849Z,23.46
2023-05-04T09:52:45.654Z,24.62
2023-05-04T09:55:15.497Z,25.31
2023-05-04T09:57:46.552Z,24.54
2023-05-04T10:00:17.191Z,23.62
2023-05-04T10:02:46.470Z,22.98
2023-05-04T10:05:17.813Z,23.70
2023-05-04T10:07:46.732Z,24.61
2023-05-04T10:10:17.113Z,24.38
2023-05-04T10:12:46.673Z,25.00
2023-05-04T10:15:17.538Z,26.77
2023-05-04T10:18:07.784Z,27.34
2023-05-04T10:20:46.770Z,27.00
2023-05-04T10:23:35.331Z,26.20
2023-05-04T10:26:08.167Z,25.64
2023-05-04T10:28:40.693Z,25.89
2023-05-04T10:31:10.256Z,27.03
2023-05-04T10:33:42.747Z,25.97
2023-05-04T10:36:10.653Z,25.34
2023-05-04T10:38:39.773Z,25.51
2023-05-04T10:41:21.387Z,25.55
2023-05-04T10:43:53.428Z,25.35
2023-05-04T10:46:28.988Z,24.09
2023-05-04T10:48:56.648Z,26.39
2023-05-04T10:51:28.109Z,26.41
2023-05-04T10:54:01.419Z,23.89
2023-05-04T10:56:31.145Z,25.61
2023-05-04T10:59:08.938Z,25.26
2023-05-04T11:01:42.406Z,24.76
2023-05-04T11:04:35.558Z,25.25
2023-05-04T11:07:05.357Z,25.56
2023-05-04T11:09:41.472Z,24.90
2023-05-04T11:12:11.833Z,26.43
2023-05-04T11:14:43.365Z,26.24
2023-05-04T11:17:27.225Z,26.01
2023-05-04T11:19:56.590Z,26.19
2023-05-04T11:22:25.220Z,26.09
2023-05-04T11:25:26.752Z,25.91
2023-05-04T11:28:06.599Z,25.23
2023-05-04T11:30:34.761Z,25.32
2023-05-04T11:33:02.747Z,25.26
2023-05-04T11:35:31.287Z,24.77
2023-05-04T11:38:08.295Z,23.77
2023-05-04T11:40:36.072Z,23.73
2023-05-04T11:43:04.220Z,25.20
2023-05-04T11:45:35.040Z,23.89
2023-05-04T11:48:08.509Z,24.28
2023-05-04T11:50:35.551Z,23.37
2023-05-04T11:53:22.148Z,23.75
2023-05-04T11:55:49.948Z,23.25
2023-05-04T11:58:23.924Z,23.12
2023-05-04T12:01:03.970Z,23.52
2023-05-04T12:03:52.344Z,24.57
2023-05-04T12:06:33.331Z,22.83
2023-05-04T12:09:04.477Z,22.58
2023-05-04T12:11:40.569Z,22.03
2023-05-04T12:14:09.553Z,21.44
2023-05-04T12:16:37.053Z,22.07
2023-05-04T12:19:15.984Z,22.01
2023-05-04T12:21:55.008Z,22.98
2023-05-04T12:24:21.783Z,23.55
2023-05-04T12:26:59.557Z,22.90
2023-05-04T12:29:31.510Z,21.99
2023-05-04T12:31:58.244Z,23.30
2023-05-04T12:34:24.932Z,22.17
2023-05-04T12:36:52.470Z,23.64
2023-05-04T12:39:28.705Z,23.38
2023-05-04T12:41:56.257Z,23.26
2023-05-04T12:44:22.768Z,23.93
2023-05-04T12:46:49.316Z,23.46
2023-05-04T12:49:24.764Z,24.33
2023-05-04T12:51:52.385Z,23.87
2023-05-04T12:54:24.833Z,24.54
2023-05-04T12:56:53.329Z,24.28
2023-05-04T12:59:22.567Z,24.64
2023-05-04T13:01:49.057Z,24.31
2023-05-04T13:04:15.790Z,24.48
2023-05-04T13:06:42.758Z,23.75
2023-05-04T13:09:09.304Z,24.66
2023-05-04T13:11:36.286Z,23.54
2023-05-04T13:14:02.890Z,24.10
2023-05-04T13:16:30.772Z,23.68
2023-05-04T13:18:58.888Z,22.35
2023-05-04T13:21:26.363Z,23.24
2023-05-04T13:23:53.105Z,23.40
2023-05-04T13:26:26.768Z,23.94
2023-05-04T13:28:53.757Z,22.85
2023-05-04T13:31:20.582Z,22.95
2023-05-04T13:33:47.200Z,21.63
2023-05-04T13:36:15.609Z,21.91
2023-05-04T13:38:44.172Z,21.58
2023-05-04T13:41:13.317Z,21.95
2023-05-04T13:43:41.097Z,21.58
2023-05-04T13:46:07.781Z,22.04
2023-05-04T13:48:34.353Z,22.86
2023-05-04T13:51:04.147Z,22.84
2023-05-04T13:53:31.815Z,23.42
2023-05-04T13:55:58.522Z,23.52
2023-05-04T13:58:25.281Z,23.02
2023-05-04T14:00:56.118Z,23.22
2023-05-04T14:03:23.949Z,23.36
2023-05-04T14:05:56.803Z,23.35
2023-05-04T14:08:38.788Z,22.43
2023-05-04T14:11:11.331Z,22.36
2023-05-04T14:13:45.697Z,23.30
2023-05-04T14:16:32.151Z,23.70
2023-05-04T14:18:59.673Z,23.71
2023-05-04T14:21:35.886Z,23.96
2023-05-04T14:24:03.488Z,23.72
2023-05-04T14:26:34.548Z,23.44
2023-05-04T14:29:01.115Z,22.95
2023-05-04T14:31:27.772Z,22.25
2023-05-04T14:33:57.042Z,22.17
2023-05-04T14:36:28.747Z,21.43
2023-05-04T14:38:56.071Z,22.41
2023-05-04T14:41:22.533Z,23.04
2023-05-04T14:43:49.097Z,22.28
2023-05-04T14:46:15.715Z,21.39
2023-05-04T14:48:44.346Z,21.68
2023-05-04T14:51:13.360Z,21.81
2023-05-04T14:53:46.384Z,22.11
2023-05-04T14:56:12.963Z,22.39
2023-05-04T14:58:39.461Z,22.45
2023-05-04T15:01:08.292Z,22.07
2023-05-04T15:03:34.879Z,22.86
2023-05-04T15:06:03.892Z,22.78
2023-05-04T15:08:31.652Z,22.76
2023-05-04T15:11:07.478Z,22.41
2023-05-04T15:13:34.086Z,22.25
2023-05-04T15:16:06.047Z,22.02
2023-05-04T15:18:32.889Z,21.98
2023-05-04T15:20:59.563Z,21.90
2023-05-04T15:23:26.557Z,21.78
2023-05-04T15:25:55.941Z,22.11
2023-05-04T15:28:27.372Z,22.25
2023-05-04T15:30:57.705Z,22.17
2023-05-04T15:33:28.719Z,21.97
2023-05-04T15:35:55.166Z,21.63
2023-05-04T15:38:21.990Z,21.74
2023-05-04T15:40:48.491Z,21.69
2023-05-04T15:43:15.189Z,21.64
2023-05-04T15:45:41.934Z,21.60
2023-05-04T15:48:08.769Z,21.76
2023-05-04T15:50:35.233Z,21.71
2023-05-04T15:53:01.709Z,21.80
2023-05-04T15:55:28.260Z,21.68
2023-05-04T15:57:54.717Z,21.69
2023-05-04T16:00:23.811Z,21.32
2023-05-04T16:05:18.885Z,20.94
2023-05-04T16:07:45.661Z,20.70
2023-05-04T16:10:12.184Z,20.31
2023-05-04T16:12:39.147Z,20.60
2023-05-04T16:15:06.127Z,20.85
2023-05-04T16:17:35.163Z,21.04
2023-05-04T16:22:29.334Z,21.18
2023-05-04T16:24:56.057Z,20.98
2023-05-04T16:27:28.750Z,20.75
2023-05-04T16:29:55.943Z,20.57
2023-05-04T16:32:23.100Z,20.57
2023-05-04T16:34:49.646Z,20.39
2023-05-04T16:37:18.357Z,20.05
2023-05-04T16:39:44.883Z,19.78
2023-05-04T16:42:11.345Z,19.90
2023-05-04T16:44:37.896Z,19.83
2023-05-04T16:47:05.502Z,19.64
2023-05-04T16:49:32.142Z,19.66
2023-05-04T16:51:58.548Z,19.47
2023-05-04T16:54:26.065Z,19.53
2023-05-04T16:56:52.779Z,19.31
2023-05-04T16:59:19.332Z,19.39
2023-05-04T17:01:47.123Z,19.26
2023-05-04T17:04:13.683Z,19.21
2023-05-04T17:06:40.260Z,18.96
2023-05-04T17:09:07.044Z,18.93
2023-05-04T17:11:34.398Z,18.78
2023-05-04T17:14:01.327Z,18.71
2023-05-04T17:16:27.806Z,18.78
2023-05-04T17:18:55.191Z,18.87
2023-05-04T17:21:21.745Z,18.96
2023-05-04T17:23:48.241Z,18.70
2023-05-04T17:26:14.746Z,18.52
2023-05-04T17:28:42.294Z,18.52
2023-05-04T17:31:12.507Z,18.63
2023-05-04T17:33:39.314Z,18.71
2023-05-04T17:36:07.751Z,18.63
2023-05-04T17:38:34.377Z,18.45
2023-05-04T17:41:01.631Z,17.99
2023-05-04T17:43:28.726Z,18.11
2023-05-04T17:45:56.227Z,17.97
2023-05-04T17:48:23.945Z,18.05
2023-05-04T17:50:50.870Z,17.90
2023-05-04T17:53:18.033Z,17.79
2023-05-04T17:55:44.546Z,17.68
2023-05-04T17:58:10.975Z,17.72
2023-05-04T18:00:38.497Z,17.63
2023-05-04T18:03:06.127Z,17.49
2023-05-04T18:05:32.636Z,17.42
2023-05-04T18:08:00.281Z,17.34
2023-05-04T18:10:31.022Z,17.27
2023-05-04T18:13:00.354Z,17.27
2023-05-04T18:15:27.034Z,17.16
2023-05-04T18:17:54.510Z,16.96
2023-05-04T18:20:21.104Z,16.90
2023-05-04T18:22:47.569Z,16.81
2023-05-04T18:25:15.362Z,16.70
2023-05-04T18:27:41.983Z,16.58
2023-05-04T18:30:09.577Z,16.45
2023-05-04T18:32:36.643Z,16.33
2023-05-04T18:35:04.378Z,16.31
2023-05-04T18:37:31.338Z,16.19
2023-05-04T18:40:04.808Z,16.08
2023-05-04T18:42:32.950Z,16.01
2023-05-04T18:44:59.695Z,15.96
2023-05-04T18:47:26.360Z,15.86
2023-05-04T18:49:56.417Z,15.81
2023-05-04T18:52:23.679Z,15.76
2023-05-04T18:54:51.067Z,15.63
2023-05-04T18:57:17.817Z,15.57
2023-05-04T18:59:44.322Z,15.49
2023-05-04T19:02:11.185Z,15.44
2023-05-04T19:04:38.041Z,15.41
2023-05-04T19:07:04.878Z,15.35
2023-05-04T19:09:31.997Z,15.24
2023-05-04T19:11:58.872Z,15.08
2023-05-04T19:14:30.028Z,15.01
2023-05-04T19:16:57.935Z,14.95
2023-05-04T19:19:26.034Z,14.86
2023-05-04T19:21:52.616Z,14.78
2023-05-04T19:24:19.525Z,14.69
2023-05-04T19:26:46.136Z,14.61
2023-05-04T19:29:13.753Z,14.60
2023-05-04T19:31:40.604Z,14.47
2023-05-04T19:34:12.610Z,14.42
2023-05-04T19:36:39.409Z,14.46
2023-05-04T19:39:07.569Z,14.35
2023-05-04T19:41:38.601Z,14.27
2023-05-04T19:44:10.382Z,14.18
2023-05-04T19:46:39.411Z,14.07
2023-05-04T19:49:06.030Z,13.97
2023-05-04T19:51:33.852Z,13.92
2023-05-04T19:54:00.492Z,13.92
2023-05-04T19:56:27.045Z,13.91
2023-05-04T19:58:53.585Z,13.83
2023-05-04T20:01:20.622Z,13.76
2023-05-04T20:03:47.108Z,13.65
2023-05-04T20:06:13.722Z,13.55
2023-05-04T20:08:41.194Z,13.47
2023-05-04T20:11:07.698Z,13.37
2023-05-04T20:13:34.425Z,13.25
2023-05-04T20:16:01.781Z,13.19
2023-05-04T20:18:28.360Z,13.20
2023-05-04T20:20:55.158Z,13.21
2023-05-04T20:23:22.117Z,13.09
2023-05-04T20:25:48.703Z,13.01
2023-05-04T20:28:15.095Z,12.97
2023-05-04T20:30:41.709Z,12.85
2023-05-04T20:33:08.356Z,12.80
2023-05-04T20:35:34.911Z,12.76
2023-05-04T20:38:02.429Z,12.70
2023-05-04T20:40:29.247Z,12.71
2023-05-04T20:42:57.646Z,12.72
2023-05-04T20:45:25.438Z,12.65
2023-05-04T20:47:51.977Z,12.58
2023-05-04T20:50:18.836Z,12.51
2023-05-04T20:52:46.279Z,12.51
2023-05-04T20:55:12.949Z,12.52
2023-05-04T20:57:39.647Z,12.50
2023-05-04T21:00:07.363Z,12.48
2023-05-04T21:02:35.874Z,12.51
2023-05-04T21:05:02.425Z,12.47
2023-05-04T21:07:29.226Z,12.46
2023-05-04T21:09:57.478Z,12.38
2023-05-04T21:12:24.217Z,12.50
2023-05-04T21:14:50.712Z,12.38
2023-05-04T21:17:17.217Z,12.35
2023-05-04T21:19:43.778Z,12.27
2023-05-04T21:22:17.500Z,12.23
2023-05-04T21:24:50.179Z,12.18
2023-05-04T21:27:16.832Z,12.10
2023-05-04T21:29:43.396Z,12.03
2023-05-04T21:32:09.808Z,12.00
2023-05-04T21:34:36.323Z,11.90
2023-05-04T21:37:03.865Z,11.89
2023-05-04T21:39:31.306Z,11.81
2023-05-04T21:41:57.816Z,11.79
2023-05-04T21:44:24.567Z,11.74
2023-05-04T21:46:51.823Z,11.70
2023-05-04T21:49:18.420Z,11.63
2023-05-04T21:51:44.976Z,11.54
2023-05-04T21:54:11.578Z,11.45
2023-05-04T21:56:40.597Z,11.40
2023-05-04T21:59:07.151Z,11.35
2023-05-04T22:01:33.662Z,11.31
2023-05-04T22:04:00.405Z,11.25
2023-05-04T22:06:27.185Z,11.16
2023-05-04T22:08:53.733Z,11.09
2023-05-04T22:11:20.244Z,11.03
2023-05-04T22:13:46.630Z,10.93
2023-05-04T22:16:13.206Z,10.84
2023-05-04T22:18:40.042Z,10.80
2023-05-04T22:21:06.541Z,10.76
2023-05-04T22:23:33.011Z,10.72
2023-05-04T22:25:59.457Z,10.60
2023-05-04T22:28:26.111Z,10.51
2023-05-04T22:30:52.719Z,10.42
2023-05-04T22:33:19.257Z,10.36
2023-05-04T22:35:45.723Z,10.24
2023-05-04T22:38:14.181Z,10.16
2023-05-04T22:40:42.640Z,10.11
2023-05-04T22:43:09.098Z,10.05
2023-05-04T22:45:36.725Z,9.92
2023-05-04T22:48:03.605Z,9.92
2023-05-04T22:50:30.480Z,9.81
2023-05-04T22:52:57.064Z,9.73
2023-05-04T22:55:24.927Z,9.65
2023-05-04T22:57:51.423Z,9.61
2023-05-04T23:00:18.413Z,9.57
2023-05-04T23:02:45.326Z,9.51
2023-05-04T23:05:11.892Z,9.51
2023-05-04T23:07:38.559Z,9.42
2023-05-04T23:10:05.509Z,9.36
2023-05-04T23:12:32.305Z,9.38
2023-05-04T23:14:59.586Z,9.32
2023-05-04T23:17:26.272Z,9.26
2023-05-04T23:19:53.000Z,9.25
2023-05-04T23:22:19.919Z,9.23
2023-05-04T23:24:46.559Z,9.23
2023-05-04T23:27:13.054Z,9.19
2023-05-04T23:29:39.731Z,9.21
2023-05-04T23:32:07.332Z,9.28
2023-05-04T23:34:34.029Z,9.14
2023-05-04T23:37:00.643Z,9.11
2023-05-04T23:39:27.369Z,9.07
2023-05-04T23:41:54.160Z,8.98
2023-05-04T23:44:21.264Z,8.92
2023-05-04T23:46:48.026Z,8.86
2023-05-04T23:49:14.630Z,8.85
2023-05-04T23:51:41.179Z,8.82
2023-05-04T23:54:09.120Z,8.73
2023-05-04T23:56:36.162Z,8.71
2023-05-04T23:59:03.691Z,8.63
